Etusivu
METAR-TAF:

METAR-TAF

Lentoasemat :

Muscle Shoals, Alabama, Yhdysvallat

Leveyspiiri: 34-44-38N, Pituuspiiri: 087-35-58W, korkeus merenpinnasta: 167 m

Tämänhetkinen sää

Tämä raportti tehtiin 24 minuuttia sitten, kello 16.53 UTC
Tuuli 4 kn eri suunnista
Lämpötila 8°C
Kosteus 42%
Ilmanpaine 1032 hPa
Näkyvyys: 16.1 km
selkeää

METAR: KMSL 221653Z AUTO VRB04KT 10SM CLR 08/M04 A3048 RMK AO2 SLP325 T00831044

Aika: 11:17 (17:17 UTC)

Sääennuste

Tämä raportti tehtiin 5 tuntia ja 45 minuuttia sitten, kello 11.32 UTC
Ennuste voimassa 22. päivästä klo 12 UTC - 23. päivään klo 12 UTC
Tuuli 3 kn eri suunnista
Näkyvyys: 10 km
selkeää
From 22. päivästä klo 1800 UTC
Tuuli 6 kn lounaasta
Näkyvyys: 10 km
selkeää
From 23. päivästä klo 0000 UTC
Tuuli 3 kn eri suunnista
Näkyvyys: 10 km
selkeää

TAF: KMSL 221132Z 2212/2312 VRB03KT P6SM SKC FM221800 22006KT P6SM SKC FM230000 VRB03KT P6SM SKC

Säähavainnot ja -ennusteet yli 4000 lentoasemalta (METAR- ja TAF-raportit).

Käytössä olevat sääasemat on merkitty karttaan keltaisilla ja punaisilla pisteillä.

Aseta hiiri pisteen päälle nähdäksesi sääaseman nimen.

Klikkaa sitten nähdäksesi säähavainnot ja -ennusteet.

Kartan vaihtaminen: klikkaa mustalla rastilla varustettuja vihreitä pisteitä, niin voit zoomata sisään; viivalla varustettua vihreää pistettä, niin voit zoomata ulos tai vihreitä nuolia, niin pääset viereisille kartoille.


METAR-TAF: